Time;durP1;ratioP1;P1;durP2;ratioP2;P2;SDS_P1;SDS_P2;PMS_P1;PMS_P2;Temp;Humidity;BMP_temperature;BMP_pressure;BME280_temperature;BME280_humidity;BME280_pressure;Samples;Min_cycle;Max_cycle;Signal;HPM_P1;HPM_P2
2022/12/23 00:04:59;;;;;;;28.70;12.27;;;;;;;;;;10496126;28;20298;-77
2022/12/23 00:09:59;;;;;;;26.02;12.80;;;;;;;;;;10502468;28;20046;-75
2022/12/23 00:15:05;;;;;;;25.35;12.60;;;;;;;;;;10486896;28;20127;-78
2022/12/23 00:20:08;;;;;;;25.42;13.18;;;;;;;;;;10488623;28;20040;-77
2022/12/23 00:25:08;;;;;;;26.25;14.00;;;;;;;;;;10488961;28;20052;-75
2022/12/23 00:30:09;;;;;;;27.02;12.98;;;;;;;;;;10488566;28;20067;-74
2022/12/23 00:35:09;;;;;;;35.88;15.32;;;;;;;;;;10488938;28;20033;-72
2022/12/23 00:45:32;;;;;;;33.70;14.43;;;;;;;;;;10489820;28;20608;-76
2022/12/23 00:50:34;;;;;;;30.27;14.90;;;;;;;;;;10471312;28;20028;-76
2022/12/23 00:55:34;;;;;;;34.83;18.15;;;;;;;;;;10488051;28;20034;-75
2022/12/23 01:05:56;;;;;;;34.40;16.70;;;;;;;;;;10489144;28;20020;-79
2022/12/23 01:10:56;;;;;;;32.25;16.25;;;;;;;;;;10470563;28;20024;-82
2022/12/23 01:16:00;;;;;;;32.17;14.63;;;;;;;;;;10487438;28;20488;-75
2022/12/23 01:21:05;;;;;;;26.48;14.00;;;;;;;;;;10503794;28;20104;-75
2022/12/23 01:26:07;;;;;;;32.53;14.82;;;;;;;;;;10503477;28;20380;-79
2022/12/23 01:31:08;;;;;;;37.50;17.00;;;;;;;;;;10487597;28;20049;-79
2022/12/23 01:36:10;;;;;;;42.83;21.90;;;;;;;;;;10487471;28;20553;-78
2022/12/23 01:46:40;;;;;;;68.30;30.35;;;;;;;;;;10488833;28;20075;-73
2022/12/23 01:51:40;;;;;;;67.93;30.30;;;;;;;;;;10469548;28;20016;-72
2022/12/23 01:56:40;;;;;;;77.45;35.00;;;;;;;;;;10486733;28;20525;-74
2022/12/23 02:12:44;;;;;;;51.72;22.30;;;;;;;;;;10468379;28;20506;-75
2022/12/23 02:18:00;;;;;;;43.97;21.02;;;;;;;;;;10485716;28;20028;-74
2022/12/23 02:23:03;;;;;;;44.50;19.35;;;;;;;;;;10472708;28;20114;-80
2022/12/23 02:28:29;;;;;;;55.85;22.75;;;;;;;;;;10443859;28;20021;-75
2022/12/23 02:33:33;;;;;;;40.63;17.27;;;;;;;;;;10464135;28;20430;-80
2022/12/23 02:38:43;;;;;;;43.67;16.15;;;;;;;;;;10467689;28;20057;-74
2022/12/23 02:43:58;;;;;;;43.85;19.95;;;;;;;;;;10484014;28;20021;-74
2022/12/23 02:49:13;;;;;;;39.88;17.67;;;;;;;;;;10484382;28;20017;-74
2022/12/23 02:54:16;;;;;;;42.00;19.55;;;;;;;;;;10485429;28;20544;-74
2022/12/23 02:59:19;;;;;;;43.25;20.23;;;;;;;;;;10483655;28;20024;-77
2022/12/23 03:04:19;;;;;;;38.35;17.13;;;;;;;;;;10484321;28;20029;-77
2022/12/23 03:09:31;;;;;;;24.45;12.35;;;;;;;;;;10485188;28;20089;-76
2022/12/23 03:14:32;;;;;;;72.20;28.63;;;;;;;;;;10483207;28;20027;-78
2022/12/23 03:19:35;;;;;;;74.60;38.28;;;;;;;;;;10483101;28;20038;-79
2022/12/23 03:24:41;;;;;;;88.72;33.10;;;;;;;;;;10484431;28;20077;-77
2022/12/23 03:29:47;;;;;;;67.43;32.60;;;;;;;;;;10483112;28;20224;-73
2022/12/23 03:34:50;;;;;;;73.93;31.08;;;;;;;;;;10482877;28;20024;-77
2022/12/23 03:40:11;;;;;;;62.45;29.50;;;;;;;;;;10483028;28;20105;-76
2022/12/23 03:45:15;;;;;;;62.45;31.23;;;;;;;;;;10483356;28;20051;-81
2022/12/23 03:50:17;;;;;;;62.15;27.23;;;;;;;;;;10482394;28;20545;-80
2022/12/23 03:55:20;;;;;;;58.78;28.45;;;;;;;;;;10490056;28;20107;-80
2022/12/23 04:00:21;;;;;;;69.80;28.30;;;;;;;;;;10492467;28;20486;-78
2022/12/23 04:05:31;;;;;;;64.40;29.92;;;;;;;;;;10501931;28;20040;-77
2022/12/23 04:10:32;;;;;;;71.53;32.97;;;;;;;;;;10511502;28;20020;-76
2022/12/23 04:15:33;;;;;;;70.15;32.15;;;;;;;;;;10499788;28;20031;-75
2022/12/23 04:20:33;;;;;;;75.00;33.70;;;;;;;;;;10471760;28;20024;-74
2022/12/23 04:25:33;;;;;;;79.30;31.87;;;;;;;;;;10490118;28;20029;-84
2022/12/23 04:30:34;;;;;;;77.23;34.27;;;;;;;;;;10505451;28;20342;-80
2022/12/23 04:35:34;;;;;;;79.13;35.20;;;;;;;;;;10514092;28;20031;-74
2022/12/23 04:40:34;;;;;;;63.47;29.48;;;;;;;;;;10491664;28;20027;-75
2022/12/23 04:45:35;;;;;;;69.07;30.73;;;;;;;;;;10507956;28;20024;-77
2022/12/23 04:50:36;;;;;;;69.60;30.75;;;;;;;;;;10513224;28;20472;-79
2022/12/23 04:55:36;;;;;;;62.47;30.48;;;;;;;;;;10555545;28;20015;-79
2022/12/23 05:00:36;;;;;;;64.53;30.30;;;;;;;;;;10540961;28;20095;-79
2022/12/23 05:05:41;;;;;;;69.20;29.17;;;;;;;;;;10553658;28;20028;-80
2022/12/23 05:10:43;;;;;;;71.47;28.10;;;;;;;;;;10560243;28;20463;-76
2022/12/23 05:15:44;;;;;;;63.67;28.00;;;;;;;;;;10556575;28;20036;-74
2022/12/23 05:20:44;;;;;;;60.67;27.83;;;;;;;;;;10568025;28;20075;-72
2022/12/23 05:25:49;;;;;;;72.38;32.88;;;;;;;;;;10553445;28;20489;-75
2022/12/23 05:30:56;;;;;;;93.10;36.72;;;;;;;;;;10552118;28;20147;-73
2022/12/23 05:35:57;;;;;;;76.05;34.17;;;;;;;;;;10551996;28;20451;-74
2022/12/23 05:40:57;;;;;;;82.40;36.97;;;;;;;;;;10551994;28;20031;-75
2022/12/23 05:45:57;;;;;;;87.90;38.80;;;;;;;;;;10551844;28;20413;-74
2022/12/23 05:50:58;;;;;;;103.10;44.53;;;;;;;;;;10569941;28;20023;-73
2022/12/23 05:56:01;;;;;;;91.10;41.17;;;;;;;;;;10542634;28;20037;-74
2022/12/23 06:01:06;;;;;;;93.22;41.15;;;;;;;;;;10565022;28;20043;-78
2022/12/23 06:06:07;;;;;;;89.00;39.70;;;;;;;;;;10553397;28;20028;-76
2022/12/23 06:11:07;;;;;;;89.90;37.67;;;;;;;;;;10558192;28;20068;-74
2022/12/23 06:16:07;;;;;;;88.85;36.45;;;;;;;;;;10550622;28;20266;-74
2022/12/23 06:21:07;;;;;;;83.57;36.58;;;;;;;;;;10567592;28;20040;-76
2022/12/23 06:26:08;;;;;;;80.78;33.90;;;;;;;;;;10537185;28;20015;-75
2022/12/23 06:31:08;;;;;;;74.68;28.35;;;;;;;;;;10533485;28;20576;-78
2022/12/23 06:36:08;;;;;;;66.03;29.13;;;;;;;;;;10550043;28;20012;-73
2022/12/23 06:41:09;;;;;;;66.68;27.50;;;;;;;;;;10549551;28;20119;-75
2022/12/23 06:46:09;;;;;;;55.00;24.80;;;;;;;;;;10567105;28;20075;-74
2022/12/23 06:51:10;;;;;;;66.20;26.50;;;;;;;;;;10549966;28;20031;-74
2022/12/23 06:56:10;;;;;;;60.35;26.70;;;;;;;;;;10549687;28;20807;-74
2022/12/23 07:01:10;;;;;;;77.00;30.00;;;;;;;;;;10549463;28;20106;-76
2022/12/23 07:06:11;;;;;;;76.13;31.77;;;;;;;;;;10553544;28;20705;-78
2022/12/23 07:11:11;;;;;;;79.95;35.38;;;;;;;;;;10558549;28;20035;-77
2022/12/23 07:16:11;;;;;;;80.45;31.80;;;;;;;;;;10548849;28;20015;-76
2022/12/23 07:21:12;;;;;;;81.93;34.23;;;;;;;;;;10548978;28;20023;-79
2022/12/23 07:26:12;;;;;;;76.63;32.93;;;;;;;;;;10566483;28;20254;-81
2022/12/23 07:31:12;;;;;;;81.90;38.67;;;;;;;;;;10549228;28;20134;-73
2022/12/23 07:36:13;;;;;;;84.82;35.97;;;;;;;;;;10548778;28;20485;-80
2022/12/23 07:41:13;;;;;;;82.30;32.17;;;;;;;;;;10566293;28;20027;-76
2022/12/23 07:46:13;;;;;;;89.82;38.97;;;;;;;;;;10571054;28;20372;-78
2022/12/23 07:51:14;;;;;;;86.65;34.70;;;;;;;;;;10547806;28;20733;-73
2022/12/23 07:56:14;;;;;;;85.53;37.53;;;;;;;;;;10566984;28;20031;-78
2022/12/23 08:01:14;;;;;;;80.68;37.65;;;;;;;;;;10547825;28;20028;-78
2022/12/23 08:06:15;;;;;;;93.43;35.35;;;;;;;;;;10565677;28;20077;-77
2022/12/23 08:11:16;;;;;;;84.18;36.30;;;;;;;;;;10547770;28;20043;-74
2022/12/23 08:16:16;;;;;;;86.32;39.65;;;;;;;;;;10547501;28;20015;-73
2022/12/23 08:21:18;;;;;;;85.63;37.05;;;;;;;;;;10548357;28;20023;-78
2022/12/23 08:26:27;;;;;;;82.07;37.17;;;;;;;;;;10570702;28;20024;-75
2022/12/23 08:31:30;;;;;;;73.65;32.60;;;;;;;;;;10564252;28;20047;-73
2022/12/23 08:36:31;;;;;;;74.88;31.80;;;;;;;;;;10551588;28;20019;-82
2022/12/23 08:41:34;;;;;;;67.20;33.17;;;;;;;;;;10555002;28;20028;-73
2022/12/23 08:46:35;;;;;;;69.75;30.58;;;;;;;;;;10571869;28;20024;-74
2022/12/23 08:51:36;;;;;;;59.53;29.63;;;;;;;;;;10554138;28;20031;-73
2022/12/23 08:56:39;;;;;;;63.65;28.90;;;;;;;;;;10553333;28;20011;-77
2022/12/23 09:01:40;;;;;;;59.33;27.65;;;;;;;;;;10554011;28;20027;-75
2022/12/23 09:06:40;;;;;;;78.50;29.42;;;;;;;;;;10571946;28;20485;-78
2022/12/23 09:11:41;;;;;;;54.55;25.92;;;;;;;;;;10572111;28;20024;-77
2022/12/23 09:16:42;;;;;;;52.77;27.07;;;;;;;;;;10553126;28;20027;-75
2022/12/23 09:21:42;;;;;;;60.57;30.03;;;;;;;;;;10553012;28;20028;-78
2022/12/23 09:26:42;;;;;;;55.97;26.27;;;;;;;;;;10552336;28;20114;-74
2022/12/23 09:31:42;;;;;;;59.30;29.87;;;;;;;;;;10552366;28;20044;-77
2022/12/23 09:36:43;;;;;;;62.63;27.10;;;;;;;;;;10552410;28;20023;-74
2022/12/23 09:42:01;;;;;;;74.68;31.27;;;;;;;;;;10567044;28;20049;-78
2022/12/23 09:47:03;;;;;;;71.85;29.23;;;;;;;;;;10543781;28;20020;-80
2022/12/23 09:52:05;;;;;;;70.35;31.48;;;;;;;;;;10533017;28;20055;-80
2022/12/23 09:57:17;;;;;;;75.80;30.38;;;;;;;;;;10550920;28;20462;-74
2022/12/23 10:02:17;;;;;;;74.10;31.85;;;;;;;;;;10569231;28;20046;-74
2022/12/23 10:07:24;;;;;;;79.13;33.92;;;;;;;;;;10569980;28;20029;-74
2022/12/23 10:12:27;;;;;;;70.65;31.75;;;;;;;;;;10568195;28;20016;-75
2022/12/23 10:17:32;;;;;;;73.93;32.95;;;;;;;;;;10549783;28;20020;-74
2022/12/23 10:22:42;;;;;;;82.50;31.55;;;;;;;;;;10567138;28;20131;-80
2022/12/23 10:27:42;;;;;;;62.30;30.95;;;;;;;;;;10566633;28;20020;-80
2022/12/23 10:33:01;;;;;;;59.70;31.13;;;;;;;;;;10566496;28;20048;-78
2022/12/23 10:38:22;;;;;;;70.47;33.72;;;;;;;;;;10568233;28;20019;-80
2022/12/23 10:43:23;;;;;;;75.03;33.15;;;;;;;;;;10567165;28;20467;-78
2022/12/23 10:48:23;;;;;;;72.30;34.58;;;;;;;;;;10559910;28;20114;-76
2022/12/23 10:53:29;;;;;;;72.07;33.20;;;;;;;;;;10552452;28;20020;-75
2022/12/23 10:58:30;;;;;;;67.15;31.45;;;;;;;;;;10549612;28;20092;-73
2022/12/23 11:03:32;;;;;;;64.10;32.42;;;;;;;;;;10529182;28;20076;-76
2022/12/23 11:08:33;;;;;;;68.35;33.40;;;;;;;;;;10559713;28;20023;-74
2022/12/23 11:13:35;;;;;;;63.80;32.03;;;;;;;;;;10548911;28;20078;-79
2022/12/23 11:18:36;;;;;;;86.45;34.90;;;;;;;;;;10548361;28;20378;-75
2022/12/23 11:23:36;;;;;;;79.95;36.53;;;;;;;;;;10568916;28;20031;-76
2022/12/23 11:28:38;;;;;;;83.60;34.03;;;;;;;;;;10548039;28;20111;-74
2022/12/23 11:33:58;;;;;;;76.00;35.83;;;;;;;;;;10530910;28;20036;-79
2022/12/23 11:39:11;;;;;;;82.78;37.45;;;;;;;;;;10565552;28;20585;-73
2022/12/23 11:44:23;;;;;;;96.38;44.20;;;;;;;;;;10547212;28;20097;-76
2022/12/23 11:49:26;;;;;;;89.68;42.50;;;;;;;;;;10566723;28;20032;-73
2022/12/23 11:54:27;;;;;;;88.60;42.28;;;;;;;;;;10564900;28;20489;-73
2022/12/23 11:59:35;;;;;;;102.53;47.13;;;;;;;;;;10565801;28;20023;-75
2022/12/23 12:04:36;;;;;;;89.15;44.15;;;;;;;;;;10565791;28;20473;-74
2022/12/23 12:09:38;;;;;;;96.20;43.60;;;;;;;;;;10547613;28;20027;-80
2022/12/23 12:14:53;;;;;;;93.05;45.38;;;;;;;;;;10551844;28;20473;-74
2022/12/23 12:19:56;;;;;;;94.82;44.72;;;;;;;;;;10554440;28;20051;-77
2022/12/23 12:24:57;;;;;;;81.93;37.97;;;;;;;;;;10555294;28;20123;-73
2022/12/23 12:30:03;;;;;;;89.03;39.45;;;;;;;;;;10546712;28;20143;-74
2022/12/23 12:35:12;;;;;;;94.07;38.28;;;;;;;;;;10572778;28;20477;-78
2022/12/23 12:40:32;;;;;;;89.05;39.70;;;;;;;;;;10554491;28;20063;-79
2022/12/23 12:45:37;;;;;;;97.75;39.45;;;;;;;;;;10529632;28;20027;-73
2022/12/23 12:50:43;;;;;;;88.68;38.97;;;;;;;;;;10544031;28;20027;-73
2022/12/23 12:55:48;;;;;;;91.68;41.83;;;;;;;;;;10570631;28;20053;-77
2022/12/23 13:01:07;;;;;;;83.85;37.38;;;;;;;;;;10571938;28;20031;-78
2022/12/23 13:06:19;;;;;;;88.63;40.40;;;;;;;;;;10556918;28;20024;-78
2022/12/23 13:11:24;;;;;;;85.18;36.40;;;;;;;;;;10560772;28;20023;-77
2022/12/23 13:16:28;;;;;;;79.45;37.72;;;;;;;;;;10539612;28;20039;-74
2022/12/23 13:21:55;;;;;;;93.72;33.95;;;;;;;;;;10552167;28;20386;-76
2022/12/23 13:27:06;;;;;;;87.70;36.47;;;;;;;;;;10524835;28;20032;-72
2022/12/23 13:32:06;;;;;;;83.25;35.67;;;;;;;;;;10551642;28;20051;-72
2022/12/23 13:37:11;;;;;;;85.60;36.50;;;;;;;;;;10540401;28;20026;-73
2022/12/23 13:42:15;;;;;;;85.90;37.40;;;;;;;;;;10584956;28;20039;-74
2022/12/23 13:47:34;;;;;;;85.85;39.67;;;;;;;;;;10564288;28;20031;-75
2022/12/23 13:52:34;;;;;;;89.35;40.63;;;;;;;;;;10541457;28;20034;-73
2022/12/23 13:57:53;;;;;;;79.82;38.15;;;;;;;;;;10549566;28;20028;-74
2022/12/23 14:02:58;;;;;;;86.32;39.10;;;;;;;;;;10551655;28;20689;-76
2022/12/23 14:08:00;;;;;;;88.47;39.38;;;;;;;;;;10554416;28;20088;-78
2022/12/23 14:13:03;;;;;;;79.07;36.58;;;;;;;;;;10548993;28;20053;-78
2022/12/23 14:18:24;;;;;;;81.22;33.55;;;;;;;;;;10548795;28;20108;-73
2022/12/23 14:23:30;;;;;;;81.63;35.88;;;;;;;;;;10549120;28;20019;-73
2022/12/23 14:28:43;;;;;;;92.30;37.78;;;;;;;;;;10541877;28;20435;-72
2022/12/23 14:33:46;;;;;;;77.75;36.00;;;;;;;;;;10547952;28;20043;-75
2022/12/23 14:39:05;;;;;;;70.80;34.53;;;;;;;;;;10549243;28;20397;-78
2022/12/23 14:44:17;;;;;;;90.68;39.53;;;;;;;;;;10567743;28;20020;-79
2022/12/23 14:49:22;;;;;;;83.28;36.78;;;;;;;;;;10551441;28;20385;-75
2022/12/23 14:54:43;;;;;;;87.88;37.65;;;;;;;;;;10543596;28;20055;-78
2022/12/23 14:59:50;;;;;;;87.25;41.00;;;;;;;;;;10551167;28;20092;-75
2022/12/23 15:04:54;;;;;;;85.97;35.30;;;;;;;;;;10549767;28;20524;-77
2022/12/23 15:09:55;;;;;;;90.13;35.70;;;;;;;;;;10567275;28;20031;-73
2022/12/23 15:14:57;;;;;;;89.85;31.83;;;;;;;;;;10567339;28;20228;-77
2022/12/23 15:20:02;;;;;;;80.32;32.45;;;;;;;;;;10549245;28;20027;-77
2022/12/23 15:25:03;;;;;;;66.57;29.17;;;;;;;;;;10549490;28;20031;-73
2022/12/23 15:30:03;;;;;;;75.22;32.45;;;;;;;;;;10548679;28;20046;-78
2022/12/23 15:35:05;;;;;;;74.97;30.17;;;;;;;;;;10565745;28;20474;-73
2022/12/23 15:40:05;;;;;;;87.28;33.92;;;;;;;;;;10528149;28;20022;-74
2022/12/23 15:45:29;;;;;;;78.60;34.22;;;;;;;;;;10526974;28;20016;-77
2022/12/23 15:50:29;;;;;;;80.07;34.50;;;;;;;;;;10540163;28;20024;-75
2022/12/23 15:55:30;;;;;;;74.95;29.20;;;;;;;;;;10535549;28;20014;-74
2022/12/23 16:00:48;;;;;;;87.95;32.53;;;;;;;;;;10559498;28;20022;-74
2022/12/23 16:05:48;;;;;;;77.83;28.87;;;;;;;;;;10586222;28;20099;-76
2022/12/23 16:10:57;;;;;;;50.33;24.63;;;;;;;;;;10556884;28;20619;-74
2022/12/23 16:16:16;;;;;;;55.40;23.42;;;;;;;;;;10576394;28;20265;-74
2022/12/23 16:21:17;;;;;;;39.60;14.00;;;;;;;;;;10559526;28;20026;-82
2022/12/23 16:26:18;;;;;;;34.28;14.85;;;;;;;;;;10575152;28;20028;-77
2022/12/23 16:31:19;;;;;;;42.90;15.50;;;;;;;;;;10564765;28;20504;-74
2022/12/23 16:36:19;;;;;;;40.38;10.15;;;;;;;;;;10555921;28;20359;-78
2022/12/23 16:41:20;;;;;;;27.77;11.38;;;;;;;;;;10573711;28;20471;-74
2022/12/23 16:46:21;;;;;;;24.73;10.30;;;;;;;;;;10555016;28;20020;-73
2022/12/23 16:51:22;;;;;;;64.93;23.63;;;;;;;;;;10571791;28;20469;-74
2022/12/23 16:56:23;;;;;;;75.03;32.03;;;;;;;;;;10528959;28;20172;-74
2022/12/23 17:01:26;;;;;;;90.93;35.10;;;;;;;;;;10511586;28;20043;-73
2022/12/23 17:06:26;;;;;;;73.03;30.48;;;;;;;;;;10553133;28;20532;-82
2022/12/23 17:11:39;;;;;;;97.78;34.53;;;;;;;;;;10549138;28;20038;-74
2022/12/23 17:16:39;;;;;;;88.10;36.72;;;;;;;;;;10547962;28;20023;-73
2022/12/23 17:21:43;;;;;;;73.32;30.88;;;;;;;;;;10552970;28;20027;-75
2022/12/23 17:26:43;;;;;;;78.88;31.05;;;;;;;;;;10564678;28;20110;-77
2022/12/23 17:31:45;;;;;;;70.03;29.65;;;;;;;;;;10534428;28;20055;-78
2022/12/23 17:36:46;;;;;;;59.20;24.58;;;;;;;;;;10537377;28;20031;-73
2022/12/23 17:41:47;;;;;;;61.72;26.13;;;;;;;;;;10541634;28;20081;-73
2022/12/23 17:46:47;;;;;;;57.95;25.25;;;;;;;;;;10545040;28;20035;-73
2022/12/23 17:51:49;;;;;;;48.58;24.95;;;;;;;;;;10542553;28;20032;-77
2022/12/23 17:56:49;;;;;;;40.92;18.88;;;;;;;;;;10544797;28;20024;-74
2022/12/23 18:01:50;;;;;;;37.58;17.38;;;;;;;;;;10541272;28;20034;-74
2022/12/23 18:06:50;;;;;;;37.75;17.08;;;;;;;;;;10555238;28;20024;-77
2022/12/23 18:11:50;;;;;;;42.00;16.92;;;;;;;;;;10497314;22;20493;-72
2022/12/23 18:16:51;;;;;;;34.30;14.07;;;;;;;;;;10428183;28;20496;-74
2022/12/23 18:21:51;;;;;;;30.75;14.90;;;;;;;;;;10414524;28;20025;-74
2022/12/23 18:26:51;;;;;;;38.70;15.48;;;;;;;;;;10410052;28;20036;-75
2022/12/23 18:31:52;;;;;;;35.30;16.95;;;;;;;;;;10409591;28;20033;-73
2022/12/23 18:36:52;;;;;;;37.27;16.00;;;;;;;;;;10394335;28;20073;-76
2022/12/23 18:41:52;;;;;;;49.00;17.77;;;;;;;;;;10427849;28;20029;-74
2022/12/23 18:46:53;;;;;;;36.58;15.90;;;;;;;;;;10411727;28;20523;-71
2022/12/23 18:51:53;;;;;;;42.92;17.60;;;;;;;;;;10385656;28;20487;-78
2022/12/23 18:56:53;;;;;;;38.60;17.13;;;;;;;;;;10397759;28;20032;-76
2022/12/23 19:01:54;;;;;;;39.45;18.30;;;;;;;;;;10408541;28;20033;-75
2022/12/23 19:06:54;;;;;;;41.60;21.37;;;;;;;;;;10402480;28;20021;-74
2022/12/23 19:11:56;;;;;;;45.45;19.13;;;;;;;;;;10380722;28;20038;-72
2022/12/23 19:16:58;;;;;;;51.58;20.58;;;;;;;;;;10407222;28;20183;-71
2022/12/23 19:21:59;;;;;;;59.90;20.92;;;;;;;;;;10390873;28;20402;-75
2022/12/23 19:26:59;;;;;;;57.33;24.07;;;;;;;;;;10384992;28;20025;-73
2022/12/23 19:31:59;;;;;;;66.65;23.58;;;;;;;;;;10402800;28;20288;-71
2022/12/23 19:37:02;;;;;;;52.90;23.88;;;;;;;;;;10382944;28;20095;-77
2022/12/23 19:42:02;;;;;;;62.08;23.95;;;;;;;;;;10389255;28;20018;-73
2022/12/23 19:47:03;;;;;;;52.80;24.75;;;;;;;;;;10392413;28;20029;-73
2022/12/23 19:52:04;;;;;;;59.13;25.38;;;;;;;;;;10385336;28;20503;-74
2022/12/23 19:57:04;;;;;;;63.95;23.20;;;;;;;;;;10398143;28;20026;-74
2022/12/23 20:02:05;;;;;;;64.20;26.27;;;;;;;;;;10401564;28;20115;-74
2022/12/23 20:07:05;;;;;;;49.97;22.67;;;;;;;;;;10385263;28;20051;-72
2022/12/23 20:12:06;;;;;;;48.08;22.20;;;;;;;;;;10401068;28;20115;-72
2022/12/23 20:17:07;;;;;;;51.67;24.33;;;;;;;;;;10387465;28;20038;-78
2022/12/23 20:22:07;;;;;;;59.73;22.93;;;;;;;;;;10384367;28;20056;-77
2022/12/23 20:27:07;;;;;;;49.95;23.92;;;;;;;;;;10393894;28;20053;-74
2022/12/23 20:32:07;;;;;;;58.60;26.33;;;;;;;;;;10403819;28;20028;-74
2022/12/23 20:37:08;;;;;;;51.67;25.55;;;;;;;;;;10392998;28;20056;-74
2022/12/23 20:42:09;;;;;;;53.53;24.83;;;;;;;;;;10403618;28;20029;-75
2022/12/23 20:47:09;;;;;;;49.22;23.73;;;;;;;;;;10433825;28;20036;-74
2022/12/23 20:52:09;;;;;;;49.20;24.08;;;;;;;;;;10404684;28;20033;-77
2022/12/23 20:57:09;;;;;;;59.28;25.60;;;;;;;;;;10415808;28;20028;-73
2022/12/23 21:02:13;;;;;;;54.80;23.85;;;;;;;;;;10485542;22;20130;-72
2022/12/23 21:07:13;;;;;;;52.63;23.30;;;;;;;;;;10474821;28;20111;-78
2022/12/23 21:12:13;;;;;;;66.85;28.08;;;;;;;;;;10480114;28;20025;-76
2022/12/23 21:17:14;;;;;;;73.45;28.23;;;;;;;;;;10463582;28;20025;-77
2022/12/23 21:22:14;;;;;;;57.25;27.23;;;;;;;;;;10492488;28;20032;-77
2022/12/23 21:27:14;;;;;;;58.50;26.75;;;;;;;;;;10476951;28;20048;-76
2022/12/23 21:32:15;;;;;;;68.53;30.63;;;;;;;;;;10475866;28;20028;-76
2022/12/23 21:37:15;;;;;;;62.25;30.58;;;;;;;;;;10449283;28;20029;-78
2022/12/23 21:42:15;;;;;;;63.67;31.73;;;;;;;;;;10433070;28;20036;-73
2022/12/23 21:47:15;;;;;;;63.30;29.55;;;;;;;;;;10442924;28;20027;-78
2022/12/23 21:52:16;;;;;;;71.88;32.85;;;;;;;;;;10442529;28;20085;-73
2022/12/23 21:57:16;;;;;;;87.57;29.45;;;;;;;;;;10441580;28;20040;-76
2022/12/23 22:02:16;;;;;;;63.63;30.02;;;;;;;;;;10443207;28;20053;-77
2022/12/23 22:07:17;;;;;;;66.90;30.55;;;;;;;;;;10432702;28;20080;-76
2022/12/23 22:12:17;;;;;;;63.88;28.42;;;;;;;;;;10433451;28;20033;-77
2022/12/23 22:17:17;;;;;;;60.87;28.97;;;;;;;;;;10440190;28;20033;-74
2022/12/23 22:22:17;;;;;;;43.88;19.35;;;;;;;;;;10443008;28;20354;-76
2022/12/23 22:27:19;;;;;;;62.17;27.70;;;;;;;;;;10442952;28;20024;-73
2022/12/23 22:32:19;;;;;;;76.05;31.23;;;;;;;;;;10436529;28;20114;-71
2022/12/23 22:37:20;;;;;;;70.15;31.33;;;;;;;;;;10431402;28;20067;-76
2022/12/23 22:42:20;;;;;;;60.75;28.45;;;;;;;;;;10442016;28;20025;-76
2022/12/23 22:47:20;;;;;;;54.13;27.13;;;;;;;;;;10442250;28;20037;-75
2022/12/23 22:52:20;;;;;;;67.80;28.42;;;;;;;;;;10441616;28;20036;-73
2022/12/23 22:57:21;;;;;;;31.77;15.75;;;;;;;;;;10440775;28;20029;-78
2022/12/23 23:02:22;;;;;;;46.97;22.02;;;;;;;;;;10511778;22;20056;-78
2022/12/23 23:07:22;;;;;;;36.35;17.23;;;;;;;;;;10538609;28;20137;-74
2022/12/23 23:12:23;;;;;;;50.03;20.03;;;;;;;;;;10549513;28;20503;-79
2022/12/23 23:17:24;;;;;;;43.92;20.70;;;;;;;;;;10508700;28;20591;-73
2022/12/23 23:22:26;;;;;;;37.20;18.90;;;;;;;;;;10523072;28;20032;-72
2022/12/23 23:27:26;;;;;;;33.72;13.57;;;;;;;;;;10525342;28;20181;-72
2022/12/23 23:32:26;;;;;;;48.65;20.75;;;;;;;;;;10506756;28;20024;-80
2022/12/23 23:37:26;;;;;;;25.50;10.77;;;;;;;;;;10523511;28;20017;-76
2022/12/23 23:42:27;;;;;;;32.40;16.33;;;;;;;;;;10506765;28;20020;-77
2022/12/23 23:47:27;;;;;;;34.42;15.52;;;;;;;;;;10507029;28;20034;-73
2022/12/23 23:52:28;;;;;;;37.70;17.83;;;;;;;;;;10506601;28;20106;-81
2022/12/23 23:57:29;;;;;;;36.05;18.25;;;;;;;;;;10506770;28;20046;-76
